Time;durP1;ratioP1;P1;durP2;ratioP2;P2;SDS_P1;SDS_P2;PMS_P1;PMS_P2;Temp;Humidity;BMP_temperature;BMP_pressure;BME280_temperature;BME280_humidity;BME280_pressure;Samples;Min_cycle;Max_cycle;Signal;HPM_P1;HPM_P2
2022/11/14 00:00:27;;;;;;;3.42;2.45;;;17.50;75.30;;;;;;5052326;28;20189;-68
2022/11/14 00:03:12;;;;;;;3.58;2.70;;;17.60;75.30;;;;;;5052155;28;20205;-69
2022/11/14 00:05:56;;;;;;;2.80;2.60;;;17.60;75.50;;;;;;5052781;28;20209;-68
2022/11/14 00:08:40;;;;;;;3.55;2.60;;;17.60;75.30;;;;;;5052365;28;20202;-68
2022/11/14 00:11:24;;;;;;;2.58;2.38;;;17.60;75.30;;;;;;5051893;28;20283;-68
2022/11/14 00:14:10;;;;;;;2.60;2.40;;;17.60;75.20;;;;;;5052046;28;20605;-68
2022/11/14 00:16:55;;;;;;;2.78;2.58;;;17.50;75.20;;;;;;5051733;28;20188;-68
2022/11/14 00:19:39;;;;;;;2.60;2.40;;;17.50;75.30;;;;;;5051829;28;20182;-68
2022/11/14 00:22:24;;;;;;;2.53;2.33;;;17.50;75.30;;;;;;5052644;28;20264;-68
2022/11/14 00:25:08;;;;;;;3.58;2.53;;;17.50;75.00;;;;;;5052918;28;20200;-67
2022/11/14 00:27:57;;;;;;;2.30;2.03;;;17.60;75.20;;;;;;5051379;28;20688;-68
2022/11/14 00:30:45;;;;;;;3.42;1.98;;;17.60;75.20;;;;;;5052787;28;20232;-68
2022/11/14 00:33:30;;;;;;;2.65;2.45;;;17.60;75.40;;;;;;5052672;28;20248;-68
2022/11/14 00:36:14;;;;;;;2.88;2.45;;;17.60;75.30;;;;;;5052472;28;20647;-68
2022/11/14 00:38:59;;;;;;;2.85;2.50;;;17.50;75.10;;;;;;5051624;28;20182;-68
2022/11/14 00:41:43;;;;;;;3.10;2.83;;;17.50;75.10;;;;;;5051626;28;20225;-68
2022/11/14 00:44:27;;;;;;;2.60;2.20;;;17.50;75.10;;;;;;5051804;28;20193;-68
2022/11/14 00:47:11;;;;;;;2.65;2.30;;;17.50;75.30;;;;;;5051272;28;20185;-68
2022/11/14 00:49:56;;;;;;;2.60;2.40;;;17.50;75.20;;;;;;5051339;28;20214;-68
2022/11/14 00:52:40;;;;;;;2.63;2.42;;;17.60;75.30;;;;;;5051105;28;20260;-68
2022/11/14 00:55:24;;;;;;;2.40;2.20;;;17.50;75.10;;;;;;5052281;28;20178;-68
2022/11/14 00:58:09;;;;;;;2.67;2.47;;;17.60;75.20;;;;;;5051072;28;20186;-66
2022/11/14 01:00:53;;;;;;;2.45;2.25;;;17.50;75.10;;;;;;5052514;28;20244;-69
2022/11/14 01:03:38;;;;;;;2.33;2.13;;;17.50;75.30;;;;;;5052337;28;20233;-68
2022/11/14 01:06:22;;;;;;;2.40;2.20;;;17.60;75.40;;;;;;5051951;28;20228;-68
2022/11/14 01:09:07;;;;;;;2.72;2.35;;;17.60;75.20;;;;;;5052243;28;20269;-68
2022/11/14 01:11:51;;;;;;;2.50;2.30;;;17.50;75.00;;;;;;5050976;28;20279;-69
2022/11/14 01:14:35;;;;;;;2.22;2.03;;;17.50;75.10;;;;;;5052086;28;20619;-68
2022/11/14 01:17:19;;;;;;;2.53;2.33;;;17.60;75.10;;;;;;5049824;28;20204;-69
2022/11/14 01:20:05;;;;;;;2.75;2.55;;;17.50;75.10;;;;;;5048273;28;20202;-68
2022/11/14 01:22:49;;;;;;;3.03;2.13;;;17.50;75.20;;;;;;5051256;28;20217;-67
2022/11/14 01:25:35;;;;;;;3.45;2.60;;;17.60;75.20;;;;;;5051251;28;20181;-69
2022/11/14 01:28:19;;;;;;;2.60;2.40;;;17.50;75.10;;;;;;5051995;28;20177;-68
2022/11/14 01:31:24;;;;;;;2.60;2.40;;;17.50;75.00;;;;;;5051082;28;20253;-68
2022/11/14 01:34:09;;;;;;;2.50;2.28;;;17.60;75.30;;;;;;5050909;28;20258;-68
2022/11/14 01:36:53;;;;;;;2.42;2.22;;;17.50;75.30;;;;;;5050573;28;20202;-69
2022/11/14 01:39:37;;;;;;;2.50;2.30;;;17.50;75.10;;;;;;5051153;28;20211;-68
2022/11/14 01:42:21;;;;;;;2.95;2.60;;;17.50;75.10;;;;;;5050763;28;20221;-69
2022/11/14 01:46:00;;;;;;;2.38;2.17;;;17.50;75.00;;;;;;5051795;28;20241;-68
2022/11/14 01:49:09;;;;;;;2.58;2.38;;;17.60;75.20;;;;;;5050841;28;20369;-68
2022/11/14 01:52:01;;;;;;;2.50;2.30;;;17.50;75.10;;;;;;5051032;28;20233;-68
2022/11/14 01:54:51;;;;;;;2.30;2.10;;;17.50;75.00;;;;;;5054560;28;20278;-68
2022/11/14 01:57:43;;;;;;;2.17;1.98;;;17.50;75.10;;;;;;5054626;28;20236;-68
2022/11/14 02:00:27;;;;;;;2.50;2.15;;;17.50;75.20;;;;;;5054532;28;20716;-69
2022/11/14 02:03:15;;;;;;;2.42;2.08;;;17.50;75.10;;;;;;5054705;28;20182;-68
2022/11/14 02:06:02;;;;;;;2.30;2.10;;;17.50;75.00;;;;;;5054047;28;20181;-68
2022/11/14 02:08:48;;;;;;;2.03;1.92;;;17.50;75.00;;;;;;5054305;28;20188;-68
2022/11/14 02:11:39;;;;;;;2.47;2.28;;;17.50;75.20;;;;;;5055073;28;20766;-68
2022/11/14 02:14:23;;;;;;;2.15;1.95;;;17.50;75.10;;;;;;5054502;28;20229;-69
2022/11/14 02:17:08;;;;;;;2.25;1.88;;;17.50;75.10;;;;;;5054226;28;20209;-68
2022/11/14 02:20:01;;;;;;;2.30;2.10;;;17.50;75.00;;;;;;5055261;28;20223;-68
2022/11/14 02:22:46;;;;;;;1.80;1.70;;;17.50;74.90;;;;;;5055916;28;20225;-68
2022/11/14 02:25:30;;;;;;;2.10;1.90;;;17.50;75.10;;;;;;5054977;28;20228;-69
2022/11/14 02:28:15;;;;;;;2.25;2.03;;;17.50;75.20;;;;;;5054803;28;20217;-68
2022/11/14 02:30:59;;;;;;;2.40;2.20;;;17.50;75.20;;;;;;5054567;28;20217;-69
2022/11/14 02:33:44;;;;;;;2.38;2.00;;;17.50;75.10;;;;;;5053844;28;20266;-68
2022/11/14 02:36:28;;;;;;;2.17;2.00;;;17.50;75.00;;;;;;5053511;28;20225;-68
2022/11/14 02:39:13;;;;;;;1.70;1.60;;;17.50;75.00;;;;;;5055072;28;20181;-68
2022/11/14 02:41:57;;;;;;;1.90;1.70;;;17.50;75.10;;;;;;5054711;28;20301;-68
2022/11/14 02:44:42;;;;;;;2.42;2.10;;;17.50;75.10;;;;;;5053723;28;20185;-68
2022/11/14 02:47:26;;;;;;;2.17;1.90;;;17.50;75.10;;;;;;5054440;28;20193;-68
2022/11/14 02:50:10;;;;;;;1.75;1.65;;;17.50;75.00;;;;;;5054531;28;20202;-69
2022/11/14 02:52:55;;;;;;;2.42;2.10;;;17.50;75.00;;;;;;5053357;28;20291;-66
2022/11/14 02:55:39;;;;;;;2.00;1.80;;;17.50;75.20;;;;;;5053268;28;20249;-66
2022/11/14 02:58:24;;;;;;;2.10;2.00;;;17.50;75.10;;;;;;5033260;28;20179;-67
2022/11/14 03:01:09;;;;;;;2.08;1.70;;;17.50;75.10;;;;;;5033377;28;20233;-67
2022/11/14 03:03:53;;;;;;;2.13;1.92;;;17.50;75.00;;;;;;5032806;28;20251;-67
2022/11/14 03:06:38;;;;;;;1.85;1.70;;;17.50;75.10;;;;;;5033339;28;20186;-67
2022/11/14 03:09:22;;;;;;;2.08;1.88;;;17.50;75.10;;;;;;5033421;28;20186;-67
2022/11/14 03:12:06;;;;;;;2.30;1.52;;;17.50;75.10;;;;;;5034120;28;20266;-67
2022/11/14 03:14:51;;;;;;;1.60;1.50;;;17.50;75.10;;;;;;5033257;28;20229;-67
2022/11/14 03:17:35;;;;;;;1.92;1.73;;;17.50;75.10;;;;;;5032951;28;20202;-67
2022/11/14 03:20:20;;;;;;;2.22;2.05;;;17.50;75.80;;;;;;5034317;28;20230;-67
2022/11/14 03:23:05;;;;;;;1.90;1.80;;;17.50;75.00;;;;;;5034084;28;20222;-67
2022/11/14 03:25:49;;;;;;;1.70;1.60;;;17.50;75.10;;;;;;5033011;28;20249;-67
2022/11/14 03:28:34;;;;;;;1.85;1.70;;;17.50;75.20;;;;;;5033168;28;20179;-67
2022/11/14 03:31:19;;;;;;;1.90;1.80;;;17.50;75.10;;;;;;5033829;28;20250;-67
2022/11/14 03:34:03;;;;;;;2.10;1.90;;;17.50;75.10;;;;;;5034938;28;20210;-67
2022/11/14 03:36:48;;;;;;;1.73;1.63;;;17.50;75.00;;;;;;5052301;28;20190;-68
2022/11/14 03:39:32;;;;;;;1.70;1.60;;;17.50;75.00;;;;;;5052955;28;20178;-68
2022/11/14 03:42:17;;;;;;;1.90;1.80;;;17.50;75.10;;;;;;5052571;28;20268;-67
2022/11/14 03:45:01;;;;;;;1.90;1.70;;;17.50;75.10;;;;;;5050686;28;20225;-67
2022/11/14 03:47:45;;;;;;;1.85;1.75;;;17.50;75.10;;;;;;5052146;28;20289;-68
2022/11/14 03:50:30;;;;;;;1.95;1.85;;;17.50;75.90;;;;;;5052438;28;20257;-67
2022/11/14 03:53:14;;;;;;;2.42;1.95;;;17.50;75.00;;;;;;5052488;28;20696;-67
2022/11/14 03:55:58;;;;;;;2.38;2.10;;;17.50;75.00;;;;;;5053490;28;20224;-67
2022/11/14 03:58:42;;;;;;;2.08;1.85;;;17.50;75.10;;;;;;5052243;28;20201;-67
2022/11/14 04:01:27;;;;;;;1.80;1.70;;;17.50;75.10;;;;;;5052386;28;20301;-67
2022/11/14 04:04:12;;;;;;;2.20;2.10;;;17.50;75.10;;;;;;5053123;28;20217;-68
2022/11/14 04:06:56;;;;;;;1.95;1.80;;;17.50;75.10;;;;;;5052230;28;20189;-68
2022/11/14 04:09:40;;;;;;;1.70;1.60;;;17.50;75.00;;;;;;5053158;28;20185;-67
2022/11/14 04:12:25;;;;;;;2.00;1.88;;;17.50;74.90;;;;;;5051893;28;20265;-67
2022/11/14 04:15:09;;;;;;;2.03;1.92;;;17.50;75.10;;;;;;5051887;28;20228;-67
2022/11/14 04:17:54;;;;;;;2.25;2.05;;;17.50;75.20;;;;;;5051761;28;20293;-67
2022/11/14 04:20:38;;;;;;;2.05;1.88;;;17.50;75.00;;;;;;5052823;28;20280;-67
2022/11/14 04:23:23;;;;;;;2.45;1.80;;;17.50;75.10;;;;;;5053013;28;20228;-67
2022/11/14 04:26:07;;;;;;;1.60;1.50;;;17.50;75.00;;;;;;5051659;28;20228;-67
2022/11/14 04:28:51;;;;;;;1.70;1.60;;;17.50;75.00;;;;;;5052608;28;20177;-67
2022/11/14 04:31:35;;;;;;;1.80;1.70;;;17.50;75.10;;;;;;5051590;28;20233;-67
2022/11/14 04:34:20;;;;;;;1.83;1.73;;;17.50;75.60;;;;;;5051673;28;20181;-67
2022/11/14 04:37:04;;;;;;;1.88;1.77;;;17.50;75.10;;;;;;5051348;28;20240;-67
2022/11/14 04:39:48;;;;;;;1.80;1.70;;;17.50;75.10;;;;;;5052582;28;20225;-68
2022/11/14 04:42:32;;;;;;;1.83;1.73;;;17.50;74.90;;;;;;5051433;28;20220;-67
2022/11/14 04:45:16;;;;;;;1.80;1.70;;;17.50;75.10;;;;;;5051424;28;20185;-67
2022/11/14 04:48:00;;;;;;;1.65;1.55;;;17.50;75.10;;;;;;5051271;28;20316;-67
2022/11/14 04:50:45;;;;;;;1.85;1.70;;;17.50;76.00;;;;;;5052186;28;20213;-67
2022/11/14 04:53:30;;;;;;;1.90;1.70;;;17.50;75.10;;;;;;5052112;28;20241;-69
2022/11/14 04:56:14;;;;;;;1.77;1.67;;;17.50;75.00;;;;;;5052364;28;20233;-67
2022/11/14 04:58:58;;;;;;;1.77;1.67;;;17.50;75.00;;;;;;5052555;28;20193;-67
2022/11/14 05:01:43;;;;;;;1.98;1.88;;;17.50;75.10;;;;;;5052502;28;20603;-67
2022/11/14 05:04:27;;;;;;;1.58;1.48;;;17.50;75.10;;;;;;5052451;28;20241;-66
2022/11/14 05:07:13;;;;;;;1.83;1.70;;;17.50;75.20;;;;;;5035042;28;20195;-67
2022/11/14 05:09:57;;;;;;;1.70;1.60;;;17.50;75.10;;;;;;5032508;28;20673;-67
2022/11/14 05:12:42;;;;;;;1.92;1.80;;;17.50;75.10;;;;;;5031157;28;20230;-66
2022/11/14 05:15:26;;;;;;;2.00;1.90;;;17.50;75.10;;;;;;5032257;28;20179;-66
2022/11/14 05:18:10;;;;;;;1.60;1.50;;;17.50;75.10;;;;;;5031975;28;20175;-68
2022/11/14 05:20:58;;;;;;;2.20;2.00;;;17.50;75.20;;;;;;5031012;28;20183;-68
2022/11/14 05:23:42;;;;;;;2.08;1.88;;;17.50;75.20;;;;;;5043525;28;20225;-67
2022/11/14 05:26:27;;;;;;;2.00;1.80;;;17.50;75.00;;;;;;5050330;28;20664;-68
2022/11/14 05:29:11;;;;;;;1.98;1.70;;;17.50;75.10;;;;;;5055008;28;20232;-67
2022/11/14 05:31:56;;;;;;;2.22;1.98;;;17.50;75.20;;;;;;5054822;28;20225;-67
2022/11/14 05:34:41;;;;;;;2.00;1.90;;;17.50;75.20;;;;;;5054920;28;20277;-67
2022/11/14 05:37:25;;;;;;;2.20;2.00;;;17.50;75.20;;;;;;5055904;28;20197;-68
2022/11/14 05:40:10;;;;;;;2.10;2.00;;;17.50;75.20;;;;;;5054851;28;20186;-67
2022/11/14 05:42:55;;;;;;;2.00;1.90;;;17.50;75.20;;;;;;5054621;28;20252;-69
2022/11/14 05:45:39;;;;;;;2.50;2.30;;;17.50;75.10;;;;;;5055733;28;20552;-68
2022/11/14 05:48:24;;;;;;;1.63;1.42;;;17.50;75.20;;;;;;5054857;28;20186;-69
2022/11/14 05:51:11;;;;;;;1.90;1.80;;;17.50;75.20;;;;;;5054662;28;20280;-69
2022/11/14 05:53:56;;;;;;;2.25;2.00;;;17.50;75.20;;;;;;5055300;28;20198;-68
2022/11/14 05:56:40;;;;;;;3.25;2.65;;;17.50;75.20;;;;;;5054374;28;20233;-68
2022/11/14 05:59:24;;;;;;;2.67;2.45;;;17.50;75.10;;;;;;5054574;28;20181;-69
2022/11/14 06:02:09;;;;;;;1.98;1.88;;;17.50;75.20;;;;;;5054799;28;20276;-70
2022/11/14 06:04:53;;;;;;;2.60;2.40;;;17.50;75.20;;;;;;5055595;28;20269;-70
2022/11/14 06:07:38;;;;;;;2.50;2.30;;;17.50;75.30;;;;;;5054187;28;20235;-71
2022/11/14 06:10:23;;;;;;;2.53;2.33;;;17.50;75.30;;;;;;5055691;28;20178;-69
2022/11/14 06:13:08;;;;;;;2.30;2.10;;;17.50;75.20;;;;;;5054197;28;20763;-69
2022/11/14 06:15:52;;;;;;;2.30;2.10;;;17.50;75.20;;;;;;5054297;28;20213;-70
2022/11/14 06:18:37;;;;;;;2.53;2.33;;;17.50;75.30;;;;;;5053805;28;20201;-70
2022/11/14 06:21:24;;;;;;;2.13;2.00;;;17.50;75.30;;;;;;5054396;28;20283;-70
2022/11/14 06:24:08;;;;;;;2.67;2.47;;;17.50;75.30;;;;;;5053924;28;20202;-70
2022/11/14 06:26:52;;;;;;;2.25;2.05;;;17.50;75.30;;;;;;5052591;28;20216;-69
2022/11/14 06:29:36;;;;;;;2.47;2.28;;;17.50;75.30;;;;;;5053661;28;20256;-70
2022/11/14 06:32:20;;;;;;;2.33;2.13;;;17.50;75.30;;;;;;5054131;28;20228;-70
2022/11/14 06:35:07;;;;;;;2.40;2.05;;;17.50;75.30;;;;;;5049442;28;20197;-70
2022/11/14 06:37:51;;;;;;;2.50;2.30;;;17.50;75.30;;;;;;5060844;28;20192;-70
2022/11/14 06:40:36;;;;;;;2.38;2.10;;;17.50;75.40;;;;;;5053572;28;20240;-70
2022/11/14 06:43:19;;;;;;;3.78;2.80;;;17.50;75.40;;;;;;5053378;28;20205;-70
2022/11/14 06:46:06;;;;;;;3.17;2.63;;;17.50;75.30;;;;;;5053858;28;20201;-70
2022/11/14 06:48:51;;;;;;;2.35;2.15;;;17.50;75.30;;;;;;5053266;28;20221;-70
2022/11/14 06:51:35;;;;;;;2.10;1.90;;;17.50;75.30;;;;;;5053131;28;20244;-70
2022/11/14 06:54:19;;;;;;;2.53;2.30;;;17.50;75.30;;;;;;5053118;28;20680;-70
2022/11/14 06:57:04;;;;;;;2.40;2.20;;;17.50;75.40;;;;;;5053901;28;20250;-70
2022/11/14 06:59:48;;;;;;;2.70;2.50;;;17.50;75.40;;;;;;5053158;28;20247;-70
2022/11/14 07:02:32;;;;;;;2.35;2.15;;;17.50;75.30;;;;;;5052964;28;20294;-70
2022/11/14 07:05:17;;;;;;;2.60;2.40;;;17.50;75.30;;;;;;5039438;28;20257;-70
2022/11/14 07:08:01;;;;;;;2.38;2.17;;;17.50;75.40;;;;;;5032730;28;20198;-70
2022/11/14 07:10:45;;;;;;;2.40;2.20;;;17.50;75.40;;;;;;5032741;28;20202;-70
2022/11/14 07:13:30;;;;;;;2.47;2.20;;;17.50;75.40;;;;;;5032806;28;20253;-70
2022/11/14 07:16:15;;;;;;;2.50;2.30;;;17.50;75.40;;;;;;5033766;28;20226;-70
2022/11/14 07:19:02;;;;;;;2.55;2.35;;;17.50;75.40;;;;;;5035201;28;20221;-70
2022/11/14 07:21:47;;;;;;;2.53;2.33;;;17.50;75.50;;;;;;5032545;28;20226;-70
2022/11/14 07:24:31;;;;;;;2.70;2.50;;;17.50;75.40;;;;;;5032654;28;20253;-70
2022/11/14 07:27:15;;;;;;;3.03;2.55;;;17.50;75.50;;;;;;5032526;28;20197;-70
2022/11/14 07:29:59;;;;;;;3.53;2.67;;;17.50;75.40;;;;;;5032451;28;20202;-70
2022/11/14 07:32:43;;;;;;;3.10;2.80;;;17.60;75.50;;;;;;5032396;28;20229;-70
2022/11/14 07:35:27;;;;;;;3.10;2.58;;;17.60;75.50;;;;;;5032540;28;20186;-70
2022/11/14 07:38:11;;;;;;;2.78;2.55;;;17.50;75.50;;;;;;5033282;28;20277;-70
2022/11/14 07:41:06;;;;;;;3.30;2.50;;;17.50;75.50;;;;;;5032306;28;20580;-70
2022/11/14 07:43:50;;;;;;;3.85;2.55;;;17.50;75.60;;;;;;5032300;28;20190;-70
2022/11/14 07:46:34;;;;;;;3.20;2.90;;;17.50;75.50;;;;;;5031990;28;20194;-69
2022/11/14 07:49:18;;;;;;;3.63;2.80;;;17.60;75.60;;;;;;5033224;28;20190;-70
2022/11/14 07:52:03;;;;;;;2.70;2.50;;;17.50;76.30;;;;;;5032093;28;20249;-70
2022/11/14 07:54:48;;;;;;;2.55;2.28;;;17.60;75.60;;;;;;5032956;28;20287;-70
2022/11/14 07:57:32;;;;;;;2.75;2.53;;;17.50;75.50;;;;;;5032863;28;20194;-70
2022/11/14 08:00:17;;;;;;;2.75;2.35;;;17.50;75.60;;;;;;5033027;28;20237;-70
2022/11/14 08:03:01;;;;;;;2.85;2.45;;;17.60;75.60;;;;;;5031920;28;20269;-70
2022/11/14 08:05:46;;;;;;;2.63;2.42;;;17.50;75.60;;;;;;5032969;28;20202;-70
2022/11/14 08:08:30;;;;;;;2.80;2.60;;;17.60;75.70;;;;;;5031695;28;20198;-70
2022/11/14 08:11:14;;;;;;;3.35;2.72;;;17.50;75.70;;;;;;5031865;28;20241;-70
2022/11/14 08:13:59;;;;;;;3.10;2.80;;;17.50;75.60;;;;;;5032534;28;20194;-70
2022/11/14 08:16:43;;;;;;;3.70;2.85;;;17.50;75.70;;;;;;5032407;28;20241;-69
2022/11/14 08:19:27;;;;;;;3.20;2.83;;;17.60;75.80;;;;;;5032647;28;20194;-70
2022/11/14 08:22:11;;;;;;;3.80;2.35;;;17.60;75.80;;;;;;5032689;28;20344;-70
2022/11/14 08:24:56;;;;;;;2.53;2.20;;;17.60;75.70;;;;;;5032934;28;20194;-70
2022/11/14 08:27:41;;;;;;;2.60;2.40;;;17.50;75.70;;;;;;5031337;28;20218;-70
2022/11/14 08:30:25;;;;;;;2.50;2.30;;;17.60;75.80;;;;;;5031434;28;20198;-68
2022/11/14 08:33:09;;;;;;;3.58;2.45;;;17.50;75.70;;;;;;5044143;28;20351;-70
2022/11/14 08:35:54;;;;;;;2.50;2.30;;;17.60;75.90;;;;;;5051189;28;20193;-70
2022/11/14 08:38:38;;;;;;;2.65;2.45;;;17.60;75.80;;;;;;5051274;28;20221;-70
2022/11/14 08:41:22;;;;;;;2.80;2.30;;;17.60;75.90;;;;;;5052047;28;20648;-70
2022/11/14 08:44:07;;;;;;;2.40;2.20;;;17.60;75.90;;;;;;5051583;28;20719;-70
2022/11/14 08:46:51;;;;;;;2.55;2.35;;;17.60;75.90;;;;;;5051936;28;20315;-69
2022/11/14 08:49:36;;;;;;;2.90;2.60;;;17.60;75.90;;;;;;5051684;28;20194;-70
2022/11/14 08:52:20;;;;;;;2.88;2.30;;;17.50;75.80;;;;;;5050629;28;20613;-70
2022/11/14 08:55:05;;;;;;;2.83;2.50;;;17.50;75.80;;;;;;5051273;28;20270;-70
2022/11/14 08:57:52;;;;;;;2.38;2.17;;;17.60;76.80;;;;;;5035919;28;20274;-70
2022/11/14 09:00:37;;;;;;;2.67;2.40;;;17.50;76.00;;;;;;5032067;28;20753;-70
2022/11/14 09:03:21;;;;;;;2.80;2.60;;;17.60;76.00;;;;;;5030223;28;20330;-70
2022/11/14 09:06:05;;;;;;;2.92;1.98;;;17.60;76.90;;;;;;5030873;28;20214;-70
2022/11/14 09:08:50;;;;;;;3.95;1.92;;;17.60;76.10;;;;;;5030665;28;20202;-70
2022/11/14 09:11:34;;;;;;;2.35;2.15;;;17.50;76.00;;;;;;5034264;28;20230;-70
2022/11/14 09:14:18;;;;;;;3.17;2.38;;;17.60;76.10;;;;;;5031075;28;20194;-70
2022/11/14 09:17:02;;;;;;;2.63;2.10;;;17.60;76.20;;;;;;5030724;28;20240;-70
2022/11/14 09:19:46;;;;;;;3.28;1.98;;;17.60;76.10;;;;;;5030880;28;20264;-70
2022/11/14 09:22:30;;;;;;;2.35;2.15;;;17.60;76.20;;;;;;5031000;28;20228;-70
2022/11/14 09:25:14;;;;;;;2.08;1.90;;;17.50;76.10;;;;;;5031798;28;20222;-70
2022/11/14 09:28:05;;;;;;;2.15;1.90;;;17.60;76.20;;;;;;5030531;28;20181;-70
2022/11/14 09:30:49;;;;;;;2.15;1.95;;;17.60;76.20;;;;;;5030844;28;20622;-70
2022/11/14 09:33:34;;;;;;;1.88;1.75;;;17.60;76.20;;;;;;5030975;28;20206;-70
2022/11/14 09:36:19;;;;;;;1.83;1.70;;;17.60;76.20;;;;;;5031543;28;20245;-70
2022/11/14 09:39:04;;;;;;;1.70;1.60;;;17.60;76.20;;;;;;5030527;28;20240;-70
2022/11/14 09:42:23;;;;;;;2.50;1.85;;;17.60;76.20;;;;;;5031654;28;20688;-70
2022/11/14 09:45:14;;;;;;;1.95;1.80;;;17.60;76.20;;;;;;5031612;28;20191;-70
2022/11/14 09:48:09;;;;;;;1.83;1.50;;;17.60;76.20;;;;;;5030413;28;20724;-70
2022/11/14 09:51:29;;;;;;;1.80;1.70;;;17.60;76.20;;;;;;5030528;28;20248;-70
2022/11/14 09:54:22;;;;;;;2.05;1.60;;;17.60;76.20;;;;;;5030597;28;20245;-70
2022/11/14 09:57:18;;;;;;;2.30;2.03;;;17.60;76.20;;;;;;5030241;28;20589;-70
2022/11/14 10:00:14;;;;;;;1.60;1.50;;;17.60;76.20;;;;;;5030438;28;20190;-70
2022/11/14 10:03:29;;;;;;;1.65;1.55;;;17.60;76.20;;;;;;5030401;28;20262;-70
2022/11/14 10:06:31;;;;;;;1.63;1.52;;;17.60;76.20;;;;;;5030819;28;20229;-69
2022/11/14 10:10:11;;;;;;;2.28;1.80;;;17.60;76.20;;;;;;5030893;28;20229;-70
2022/11/14 10:13:32;;;;;;;1.92;1.73;;;17.60;76.20;;;;;;5035183;28;20228;-70
2022/11/14 10:16:55;;;;;;;1.95;1.67;;;17.60;76.20;;;;;;5048305;28;20256;-70
2022/11/14 10:20:10;;;;;;;2.03;1.65;;;17.60;76.20;;;;;;4996565;28;20193;-70
2022/11/14 10:23:14;;;;;;;2.35;1.60;;;17.60;76.20;;;;;;5055235;28;20222;-70
2022/11/14 10:26:25;;;;;;;1.60;1.50;;;17.60;76.20;;;;;;5054142;28;20252;-70
2022/11/14 10:30:03;;;;;;;1.90;1.80;;;17.60;76.20;;;;;;5051380;28;20244;-69
2022/11/14 10:33:32;;;;;;;1.85;1.67;;;17.60;76.20;;;;;;5049410;28;20226;-69
2022/11/14 10:36:30;;;;;;;1.55;1.45;;;17.60;76.20;;;;;;5034112;28;20255;-70
2022/11/14 10:39:44;;;;;;;1.58;1.48;;;17.60;76.20;;;;;;5046759;28;20185;-69
2022/11/14 10:42:38;;;;;;;1.73;1.63;;;17.60;76.40;;;;;;5034830;28;20252;-70
2022/11/14 10:45:52;;;;;;;1.45;1.35;;;17.60;76.40;;;;;;5047890;28;20255;-70
2022/11/14 10:48:46;;;;;;;1.60;1.48;;;17.60;76.30;;;;;;5033691;28;20240;-70
2022/11/14 10:51:46;;;;;;;3.08;1.73;;;17.60;76.30;;;;;;5033589;28;20234;-69
2022/11/14 10:54:47;;;;;;;1.83;1.50;;;17.60;76.20;;;;;;5033991;28;20222;-70
2022/11/14 10:57:31;;;;;;;1.98;1.30;;;17.70;76.40;;;;;;5033452;28;20178;-70
2022/11/14 11:00:21;;;;;;;1.60;1.50;;;17.70;76.50;;;;;;5033641;28;20182;-70
2022/11/14 11:03:06;;;;;;;1.58;1.45;;;17.70;76.40;;;;;;5033224;28;20280;-70
2022/11/14 11:05:58;;;;;;;1.40;1.30;;;17.70;76.40;;;;;;5033546;28;20326;-70
2022/11/14 11:12:02;;;;;;;3.40;1.58;;;17.70;76.30;;;;;;5034342;28;20249;-70
2022/11/14 11:15:30;;;;;;;1.42;1.33;;;17.70;76.50;;;;;;5042451;28;20185;-70
2022/11/14 11:18:26;;;;;;;1.92;1.73;;;17.70;76.50;;;;;;5052991;28;20174;-69
2022/11/14 11:21:13;;;;;;;1.60;1.45;;;17.70;76.50;;;;;;5052875;28;20295;-70
2022/11/14 11:23:58;;;;;;;1.40;1.30;;;17.70;76.50;;;;;;5043385;28;20225;-69
2022/11/14 11:26:42;;;;;;;1.42;1.33;;;17.70;76.50;;;;;;5033679;28;20554;-70
2022/11/14 11:29:26;;;;;;;1.90;1.55;;;17.70;76.30;;;;;;5033374;28;20236;-70
2022/11/14 11:32:10;;;;;;;1.63;1.52;;;17.70;76.40;;;;;;5033004;28;20633;-69
2022/11/14 11:34:57;;;;;;;1.90;1.50;;;17.70;76.50;;;;;;5032871;28;20178;-69
2022/11/14 11:37:56;;;;;;;1.58;1.48;;;17.70;76.50;;;;;;5032794;28;20233;-69
2022/11/14 11:40:49;;;;;;;1.60;1.50;;;17.70;76.60;;;;;;5033737;28;20267;-69
2022/11/14 11:43:49;;;;;;;1.83;1.58;;;17.70;76.50;;;;;;5032765;28;20259;-69
2022/11/14 11:46:51;;;;;;;1.40;1.20;;;17.70;76.60;;;;;;5033672;28;20195;-69
2022/11/14 11:49:50;;;;;;;1.73;1.60;;;17.70;76.70;;;;;;5032670;28;20260;-69
2022/11/14 11:53:10;;;;;;;1.67;1.58;;;17.70;76.80;;;;;;5033604;28;20268;-69
2022/11/14 11:56:11;;;;;;;1.58;1.48;;;17.70;76.70;;;;;;5051233;28;20253;-69
2022/11/14 11:59:35;;;;;;;1.70;1.60;;;17.70;77.60;;;;;;5053062;28;20185;-69
2022/11/14 12:02:25;;;;;;;1.77;1.58;;;17.70;76.90;;;;;;5052566;28;20715;-69
2022/11/14 12:05:41;;;;;;;1.45;1.35;;;17.70;77.00;;;;;;5051345;28;20205;-69
2022/11/14 12:09:00;;;;;;;2.47;1.88;;;17.70;77.00;;;;;;5046400;28;20182;-69
2022/11/14 12:11:56;;;;;;;1.75;1.65;;;17.70;77.00;;;;;;5033050;28;20225;-69
2022/11/14 12:14:51;;;;;;;2.00;1.80;;;17.70;77.00;;;;;;5051360;28;20190;-69
2022/11/14 12:17:52;;;;;;;2.65;2.00;;;17.70;77.00;;;;;;5050148;28;20221;-69
2022/11/14 12:21:11;;;;;;;1.90;1.70;;;17.70;77.00;;;;;;5058817;28;20189;-69
2022/11/14 12:24:57;;;;;;;2.42;1.80;;;17.70;77.00;;;;;;5063917;28;20336;-70
2022/11/14 12:28:01;;;;;;;2.90;2.00;;;17.70;77.00;;;;;;5045390;28;20201;-70
2022/11/14 12:30:52;;;;;;;2.40;2.10;;;17.70;77.00;;;;;;5051089;28;20683;-69
2022/11/14 12:33:45;;;;;;;2.10;1.67;;;17.70;77.00;;;;;;5050220;28;20704;-70
2022/11/14 12:36:33;;;;;;;2.20;1.88;;;17.70;77.00;;;;;;5048648;28;20749;-69
2022/11/14 12:39:28;;;;;;;3.22;1.90;;;17.80;77.00;;;;;;5050180;28;20236;-69
2022/11/14 12:42:20;;;;;;;2.00;1.80;;;17.70;77.00;;;;;;5051062;28;20275;-69
2022/11/14 12:45:39;;;;;;;1.90;1.70;;;17.70;77.00;;;;;;5051802;28;20198;-69
2022/11/14 12:48:33;;;;;;;2.78;2.20;;;17.80;77.10;;;;;;5052340;28;20336;-69
2022/11/14 12:51:26;;;;;;;2.58;1.88;;;17.80;77.20;;;;;;5051027;28;20241;-69
2022/11/14 12:54:44;;;;;;;2.25;1.83;;;17.80;77.20;;;;;;5051082;28;20278;-70
2022/11/14 12:58:05;;;;;;;1.98;1.67;;;17.80;77.30;;;;;;5050505;28;20267;-69
2022/11/14 13:00:49;;;;;;;2.45;1.90;;;17.80;77.40;;;;;;5050901;28;20274;-69
2022/11/14 13:04:16;;;;;;;1.90;1.52;;;17.70;77.30;;;;;;5050780;28;20197;-69
2022/11/14 13:08:10;;;;;;;2.05;1.80;;;17.80;77.40;;;;;;5027008;28;20198;-69
2022/11/14 13:10:55;;;;;;;2.25;1.70;;;17.80;77.40;;;;;;5034561;28;20239;-69
2022/11/14 13:23:39;;;;;;;2.08;1.67;;;17.70;77.30;;;;;;5051870;28;20209;-69
2022/11/14 13:26:23;;;;;;;3.00;1.92;;;17.80;77.50;;;;;;5051492;28;20719;-70
2022/11/14 13:29:39;;;;;;;3.40;1.75;;;17.80;77.50;;;;;;5051786;28;20204;-70
2022/11/14 13:32:51;;;;;;;3.10;1.80;;;17.80;77.50;;;;;;5051607;28;20226;-70
2022/11/14 13:35:55;;;;;;;3.88;2.10;;;17.80;77.50;;;;;;5050748;28;20244;-69
2022/11/14 13:39:19;;;;;;;2.83;1.90;;;17.80;77.40;;;;;;5050431;28;20239;-70
2022/11/14 13:42:26;;;;;;;2.50;1.63;;;17.80;77.50;;;;;;5027926;28;20221;-70
2022/11/14 13:45:42;;;;;;;2.33;1.80;;;17.80;77.60;;;;;;5051522;28;20193;-69
2022/11/14 13:49:00;;;;;;;2.42;1.75;;;17.80;77.50;;;;;;5052358;28;20197;-70
2022/11/14 13:51:45;;;;;;;2.53;1.83;;;17.80;77.60;;;;;;5054223;28;20227;-69
2022/11/14 13:54:30;;;;;;;2.38;1.70;;;17.80;77.50;;;;;;5054211;28;20266;-69
2022/11/14 13:57:58;;;;;;;2.58;1.65;;;17.80;77.60;;;;;;5054878;28;20182;-69
2022/11/14 14:01:30;;;;;;;2.15;1.58;;;17.80;77.60;;;;;;5054731;28;20772;-69
2022/11/14 14:04:32;;;;;;;2.50;1.50;;;17.70;77.50;;;;;;5043166;28;20236;-69
2022/11/14 14:07:35;;;;;;;1.88;1.60;;;17.80;77.60;;;;;;5054266;28;20193;-69
2022/11/14 14:10:40;;;;;;;2.20;1.80;;;17.70;77.60;;;;;;5055804;28;20264;-69
2022/11/14 14:14:34;;;;;;;3.63;2.10;;;17.80;77.70;;;;;;5055468;28;20248;-69
2022/11/14 14:17:28;;;;;;;3.53;1.88;;;17.80;78.10;;;;;;5054191;28;20177;-69
2022/11/14 14:20:53;;;;;;;2.55;1.70;;;17.80;78.40;;;;;;5054322;28;20181;-69
2022/11/14 14:23:47;;;;;;;2.13;1.88;;;17.80;78.40;;;;;;5047323;22;20289;-68
2022/11/14 14:26:54;;;;;;;3.05;1.90;;;17.80;78.40;;;;;;5000533;28;20179;-68
2022/11/14 14:30:01;;;;;;;1.83;1.60;;;17.80;78.50;;;;;;5000487;28;20183;-68
2022/11/14 14:33:21;;;;;;;2.05;1.67;;;17.70;78.30;;;;;;5023121;28;20301;-68
2022/11/14 14:36:33;;;;;;;2.63;1.77;;;17.80;78.40;;;;;;4941111;29;20330;-68
2022/11/14 14:39:27;;;;;;;2.53;1.70;;;17.80;78.40;;;;;;5047913;28;20205;-68
2022/11/14 14:42:12;;;;;;;1.70;1.40;;;17.80;78.40;;;;;;5019954;28;20257;-68
2022/11/14 14:44:57;;;;;;;2.17;1.75;;;17.80;78.40;;;;;;5033823;28;20255;-68
2022/11/14 14:47:49;;;;;;;1.88;1.73;;;17.80;78.40;;;;;;5034626;28;20185;-68
2022/11/14 14:50:41;;;;;;;2.28;1.67;;;17.80;78.40;;;;;;5019755;28;20186;-69
2022/11/14 14:53:31;;;;;;;2.35;1.83;;;17.70;78.20;;;;;;5019586;28;20230;-68
2022/11/14 14:56:24;;;;;;;1.45;1.35;;;17.80;78.40;;;;;;5019732;28;20174;-68
2022/11/14 14:59:23;;;;;;;2.40;1.50;;;17.70;78.30;;;;;;5034671;28;20183;-69
2022/11/14 15:02:16;;;;;;;2.28;1.73;;;17.70;78.40;;;;;;5019310;28;20269;-69
2022/11/14 15:05:02;;;;;;;2.00;1.70;;;17.80;78.60;;;;;;5034799;28;20197;-73